createdAt,value
2019-02-17T00:01:49.365Z,0.06
2019-02-17T00:04:17.917Z,0.10
2019-02-17T00:06:46.509Z,-0.09
2019-02-17T00:09:15.348Z,-0.19
2019-02-17T00:11:43.945Z,-0.09
2019-02-17T00:14:12.501Z,-0.11
2019-02-17T00:16:41.059Z,-0.13
2019-02-17T00:19:09.658Z,-0.23
2019-02-17T00:21:38.217Z,-0.14
2019-02-17T00:24:06.779Z,0.01
2019-02-17T00:26:35.368Z,0.05
2019-02-17T00:29:03.947Z,-0.06
2019-02-17T00:31:32.541Z,-0.07
2019-02-17T00:34:01.095Z,-0.17
2019-02-17T00:36:29.674Z,-0.27
2019-02-17T00:38:58.268Z,-0.39
2019-02-17T00:41:26.828Z,-0.43
2019-02-17T00:43:55.381Z,-0.43
2019-02-17T00:46:23.970Z,-0.39
2019-02-17T00:48:52.526Z,-0.59
2019-02-17T00:51:21.110Z,-0.61
2019-02-17T00:53:49.704Z,-0.51
2019-02-17T00:56:18.253Z,-0.47
2019-02-17T00:58:46.810Z,-0.47
2019-02-17T01:01:15.406Z,-0.47
2019-02-17T01:03:43.958Z,-0.33
2019-02-17T01:06:12.572Z,-0.29
2019-02-17T01:08:41.111Z,-0.16
2019-02-17T01:11:09.668Z,-0.28
2019-02-17T01:13:38.256Z,-0.37
2019-02-17T01:16:07.169Z,-0.43
2019-02-17T01:18:35.760Z,-0.51
2019-02-17T01:21:04.316Z,-0.31
2019-02-17T01:23:32.873Z,-0.40
2019-02-17T01:26:01.463Z,-0.43
2019-02-17T01:28:30.055Z,-0.59
2019-02-17T01:30:58.639Z,-0.63
2019-02-17T01:33:27.237Z,-0.61
2019-02-17T01:35:55.796Z,-0.63
2019-02-17T01:38:24.354Z,-0.51
2019-02-17T01:40:52.950Z,-0.65
2019-02-17T01:43:21.518Z,-0.56
2019-02-17T01:45:50.076Z,-0.45
2019-02-17T01:48:18.762Z,-0.43
2019-02-17T01:50:47.322Z,-0.40
2019-02-17T01:53:15.942Z,-0.38
2019-02-17T01:55:46.945Z,-0.68
2019-02-17T01:58:14.809Z,-0.77
2019-02-17T02:00:43.398Z,-0.81
2019-02-17T02:03:11.959Z,-0.79
2019-02-17T02:05:40.513Z,-1.13
2019-02-17T02:08:09.110Z,-0.96
2019-02-17T02:10:37.668Z,-0.86
2019-02-17T02:13:06.998Z,-0.93
2019-02-17T02:15:35.970Z,-1.08
2019-02-17T02:18:05.375Z,-1.20
2019-02-17T02:20:35.068Z,-1.14
2019-02-17T02:23:04.802Z,-1.10
2019-02-17T02:25:34.920Z,-1.23
2019-02-17T02:28:04.601Z,-1.07
2019-02-17T02:30:34.358Z,-0.80
2019-02-17T02:33:04.023Z,-0.87
2019-02-17T02:35:33.741Z,-1.01
2019-02-17T02:38:03.174Z,-1.15
2019-02-17T02:40:32.950Z,-1.22
2019-02-17T02:43:02.483Z,-1.13
2019-02-17T02:45:31.079Z,-1.03
2019-02-17T02:47:59.646Z,-1.03
2019-02-17T02:50:28.672Z,-1.18
2019-02-17T02:52:58.511Z,-1.27
2019-02-17T02:55:27.450Z,-1.17
2019-02-17T02:57:56.792Z,-1.27
2019-02-17T03:00:26.440Z,-1.32
2019-02-17T03:02:55.768Z,-1.24
2019-02-17T03:05:25.410Z,-1.19
2019-02-17T03:07:54.680Z,-1.08
2019-02-17T03:10:24.411Z,-1.04
2019-02-17T03:12:54.094Z,-1.07
2019-02-17T03:15:23.795Z,-1.08
2019-02-17T03:17:53.228Z,-0.99
2019-02-17T03:20:22.588Z,-1.12
2019-02-17T03:22:52.313Z,-1.41
2019-02-17T03:25:22.160Z,-1.60
2019-02-17T03:27:51.823Z,-1.41
2019-02-17T03:30:23.418Z,-1.35
2019-02-17T03:32:53.240Z,-1.44
2019-02-17T03:35:23.140Z,-1.49
2019-02-17T03:37:53.034Z,-1.50
2019-02-17T03:40:22.932Z,-1.71
2019-02-17T03:42:52.735Z,-1.75
2019-02-17T03:45:22.392Z,-1.84
2019-02-17T03:47:51.734Z,-2.10
2019-02-17T03:50:21.343Z,-2.09
2019-02-17T03:52:51.083Z,-1.83
2019-02-17T03:55:20.627Z,-1.80
2019-02-17T03:57:50.264Z,-1.83
2019-02-17T04:00:18.837Z,-1.71
2019-02-17T04:02:48.423Z,-1.82
2019-02-17T04:05:17.822Z,-1.81
2019-02-17T04:07:47.544Z,-1.73
2019-02-17T04:10:16.097Z,-1.76
2019-02-17T04:12:45.083Z,-1.84
2019-02-17T04:15:14.143Z,-1.87
2019-02-17T04:17:43.415Z,-1.69
2019-02-17T04:20:12.370Z,-1.69
2019-02-17T04:22:40.939Z,-1.74
2019-02-17T04:25:09.819Z,-1.71
2019-02-17T04:27:38.988Z,-1.78
2019-02-17T04:30:07.619Z,-1.71
2019-02-17T04:32:36.882Z,-1.91
2019-02-17T04:35:06.281Z,-2.04
2019-02-17T04:37:35.175Z,-2.21
2019-02-17T04:40:04.091Z,-2.34
2019-02-17T04:42:33.017Z,-1.82
2019-02-17T04:45:01.592Z,-1.64
2019-02-17T04:47:30.939Z,-1.58
2019-02-17T04:49:59.524Z,-1.61
2019-02-17T04:52:28.158Z,-1.63
2019-02-17T04:54:57.103Z,-1.60
2019-02-17T04:57:26.165Z,-1.40
2019-02-17T04:59:54.734Z,-1.36
2019-02-17T05:02:23.286Z,-1.80
2019-02-17T05:04:51.879Z,-2.05
2019-02-17T05:07:21.080Z,-2.11
2019-02-17T05:09:50.307Z,-2.30
2019-02-17T05:12:18.888Z,-2.46
2019-02-17T05:14:47.824Z,-2.57
2019-02-17T05:17:16.751Z,-2.45
2019-02-17T05:19:45.313Z,-2.50
2019-02-17T05:22:13.963Z,-2.64
2019-02-17T05:24:42.937Z,-2.65
2019-02-17T05:27:11.493Z,-2.80
2019-02-17T05:29:40.124Z,-2.75
2019-02-17T05:32:08.807Z,-2.48
2019-02-17T05:34:37.801Z,-2.25
2019-02-17T05:37:06.352Z,-2.21
2019-02-17T05:39:35.651Z,-2.39
2019-02-17T05:42:04.920Z,-2.23
2019-02-17T05:44:33.475Z,-2.30
2019-02-17T05:47:03.038Z,-2.30
2019-02-17T05:49:32.696Z,-2.27
2019-02-17T05:52:02.331Z,-2.17
2019-02-17T05:54:31.664Z,-1.82
2019-02-17T05:57:01.103Z,-1.67
2019-02-17T05:59:30.507Z,-1.69
2019-02-17T06:02:00.179Z,-1.68
2019-02-17T06:04:29.661Z,-1.74
2019-02-17T06:06:59.330Z,-1.62
2019-02-17T06:09:29.011Z,-1.67
2019-02-17T06:11:58.338Z,-1.68
2019-02-17T06:14:28.057Z,-1.68
2019-02-17T06:16:56.959Z,-1.76
2019-02-17T06:19:26.351Z,-1.82
2019-02-17T06:21:56.059Z,-1.78
2019-02-17T06:24:25.508Z,-1.72
2019-02-17T06:26:54.798Z,-1.67
2019-02-17T06:29:24.182Z,-1.60
2019-02-17T06:31:53.540Z,-1.52
2019-02-17T06:34:22.432Z,-1.55
2019-02-17T06:36:51.379Z,-1.47
2019-02-17T06:39:21.668Z,-1.60
2019-02-17T06:41:51.331Z,-1.64
2019-02-17T06:44:20.702Z,-1.56
2019-02-17T06:46:54.332Z,-1.70
2019-02-17T06:49:23.846Z,-1.84
2019-02-17T06:51:52.804Z,-1.79
2019-02-17T06:54:22.536Z,-1.57
2019-02-17T06:57:05.602Z,-1.65
2019-02-17T06:59:35.271Z,-1.40
2019-02-17T07:02:04.990Z,-1.26
2019-02-17T07:04:56.122Z,-1.21
2019-02-17T07:07:25.826Z,-0.98
2019-02-17T07:09:55.803Z,-0.99
2019-02-17T07:12:42.547Z,-0.89
2019-02-17T07:15:11.632Z,-0.73
2019-02-17T07:17:41.030Z,-0.60
2019-02-17T07:20:10.756Z,-0.47
2019-02-17T07:22:40.132Z,-0.26
2019-02-17T07:25:09.462Z,-0.07
2019-02-17T07:27:38.506Z,0.10
2019-02-17T07:30:08.261Z,0.32
2019-02-17T07:32:37.825Z,0.38
2019-02-17T07:35:06.957Z,0.51
2019-02-17T07:37:36.350Z,0.61
2019-02-17T07:40:06.039Z,0.63
2019-02-17T07:42:35.349Z,0.70
2019-02-17T07:45:04.754Z,0.71
2019-02-17T07:47:33.739Z,0.87
2019-02-17T07:50:02.745Z,0.95
2019-02-17T07:52:31.304Z,1.00
2019-02-17T07:55:00.370Z,1.10
2019-02-17T07:57:29.338Z,1.21
2019-02-17T07:59:58.721Z,1.23
2019-02-17T08:02:28.008Z,1.23
2019-02-17T08:04:57.058Z,1.31
2019-02-17T08:07:26.554Z,1.42
2019-02-17T08:09:56.233Z,1.59
2019-02-17T08:12:25.587Z,1.76
2019-02-17T08:14:54.549Z,1.78
2019-02-17T08:17:24.299Z,1.95
2019-02-17T08:19:53.504Z,2.11
2019-02-17T08:22:22.398Z,2.24
2019-02-17T08:24:51.345Z,2.40
2019-02-17T08:27:19.910Z,2.54
2019-02-17T08:29:48.487Z,2.54
2019-02-17T08:32:17.433Z,2.72
2019-02-17T08:34:45.983Z,2.86
2019-02-17T08:37:14.919Z,2.85
2019-02-17T08:39:43.507Z,2.84
2019-02-17T08:42:12.054Z,3.03
2019-02-17T08:44:40.610Z,3.12
2019-02-17T08:47:09.269Z,3.33
2019-02-17T08:49:37.852Z,3.43
2019-02-17T08:52:07.122Z,3.55
2019-02-17T08:54:35.706Z,3.69
2019-02-17T08:57:04.744Z,3.79
2019-02-17T08:59:34.491Z,3.92
2019-02-17T09:02:05.941Z,4.01
2019-02-17T09:04:34.789Z,4.21
2019-02-17T09:07:03.671Z,4.49
2019-02-17T09:09:33.290Z,4.82
2019-02-17T09:12:02.481Z,5.16
2019-02-17T09:14:32.066Z,5.31
2019-02-17T09:17:01.355Z,5.59
2019-02-17T09:19:31.080Z,5.91
2019-02-17T09:22:02.802Z,6.13
2019-02-17T09:24:32.133Z,6.40
2019-02-17T09:27:00.804Z,6.68
2019-02-17T09:29:30.432Z,6.98
2019-02-17T09:31:59.533Z,7.04
2019-02-17T09:34:28.171Z,7.23
2019-02-17T09:36:57.479Z,7.57
2019-02-17T09:39:26.371Z,7.77
2019-02-17T09:41:54.923Z,8.04
2019-02-17T09:44:23.489Z,8.49
2019-02-17T09:46:52.079Z,9.02
2019-02-17T09:49:21.359Z,9.14
2019-02-17T09:51:50.365Z,9.45
2019-02-17T09:54:18.968Z,9.77
2019-02-17T09:56:47.574Z,10.10
2019-02-17T09:59:16.149Z,10.54
2019-02-17T10:01:44.706Z,10.85
2019-02-17T10:04:13.309Z,11.32
2019-02-17T10:06:41.868Z,11.57
2019-02-17T10:09:10.426Z,12.11
2019-02-17T10:11:39.022Z,12.70
2019-02-17T10:14:07.577Z,13.43
2019-02-17T10:16:36.134Z,13.81
2019-02-17T10:19:04.722Z,14.57
2019-02-17T10:21:33.355Z,15.50
2019-02-17T10:24:01.914Z,16.24
2019-02-17T10:26:30.481Z,16.58
2019-02-17T10:28:59.082Z,17.18
2019-02-17T10:31:27.635Z,17.94
2019-02-17T10:33:56.215Z,17.71
2019-02-17T10:36:24.842Z,18.89
2019-02-17T10:38:53.399Z,19.17
2019-02-17T10:41:22.285Z,19.17
2019-02-17T10:43:50.886Z,19.50
2019-02-17T10:46:19.440Z,18.33
2019-02-17T10:48:48.002Z,19.18
2019-02-17T10:51:16.586Z,20.12
2019-02-17T10:53:45.510Z,20.42
2019-02-17T10:56:14.092Z,19.34
2019-02-17T10:58:42.683Z,17.70
2019-02-17T11:01:11.251Z,17.70
2019-02-17T11:03:39.866Z,17.52
2019-02-17T11:06:08.433Z,18.14
2019-02-17T11:08:37.000Z,18.12
2019-02-17T11:11:05.604Z,18.33
2019-02-17T11:13:34.174Z,18.79
2019-02-17T11:16:02.761Z,20.28
2019-02-17T11:18:31.369Z,20.00
2019-02-17T11:21:00.347Z,19.84
2019-02-17T11:23:28.957Z,19.02
2019-02-17T11:25:58.277Z,18.47
2019-02-17T11:28:27.681Z,18.66
2019-02-17T11:30:57.087Z,18.79
2019-02-17T11:33:26.738Z,18.35
2019-02-17T11:35:56.032Z,19.50
2019-02-17T11:38:25.711Z,18.72
2019-02-17T11:40:54.378Z,18.91
2019-02-17T11:43:23.618Z,19.67
2019-02-17T11:45:53.310Z,18.97
2019-02-17T11:48:23.052Z,18.65
2019-02-17T11:50:52.352Z,18.43
2019-02-17T11:53:21.717Z,18.46
2019-02-17T11:55:52.291Z,17.62
2019-02-17T11:58:21.869Z,17.85
2019-02-17T12:00:51.199Z,18.00
2019-02-17T12:03:20.825Z,18.75
2019-02-17T12:05:50.065Z,19.01
2019-02-17T12:08:19.476Z,20.24
2019-02-17T12:10:48.774Z,20.24
2019-02-17T12:13:18.528Z,20.36
2019-02-17T12:15:48.022Z,20.91
2019-02-17T12:18:17.221Z,20.33
2019-02-17T12:20:57.551Z,20.38
2019-02-17T12:23:41.901Z,20.43
2019-02-17T12:26:27.508Z,20.82
2019-02-17T12:29:19.621Z,21.75
2019-02-17T12:31:48.581Z,22.53
2019-02-17T12:34:17.644Z,22.15
2019-02-17T12:36:47.167Z,22.28
2019-02-17T12:39:15.764Z,21.94
2019-02-17T12:41:44.637Z,21.91
2019-02-17T12:44:13.595Z,21.17
2019-02-17T12:46:43.344Z,21.44
2019-02-17T12:49:13.018Z,21.86
2019-02-17T12:51:42.388Z,21.79
2019-02-17T12:54:11.368Z,22.25
2019-02-17T12:56:40.327Z,21.76
2019-02-17T12:59:09.576Z,23.25
2019-02-17T13:01:38.567Z,23.22
2019-02-17T13:04:07.839Z,23.77
2019-02-17T13:06:36.396Z,22.84
2019-02-17T13:09:06.955Z,22.03
2019-02-17T13:11:35.519Z,22.43
2019-02-17T13:14:04.097Z,22.92
2019-02-17T13:16:32.651Z,24.35
2019-02-17T13:19:01.241Z,24.99
2019-02-17T13:21:29.857Z,24.97
2019-02-17T13:23:58.441Z,24.74
2019-02-17T13:26:26.992Z,24.87
2019-02-17T13:28:55.644Z,24.42
2019-02-17T13:31:24.236Z,23.28
2019-02-17T13:33:52.795Z,23.32
2019-02-17T13:36:21.356Z,23.40
2019-02-17T13:38:49.940Z,24.23
2019-02-17T13:41:18.497Z,23.08
2019-02-17T13:43:47.051Z,22.12
2019-02-17T13:46:16.111Z,21.50
2019-02-17T13:48:44.744Z,21.04
2019-02-17T13:51:13.294Z,21.44
2019-02-17T13:53:41.883Z,22.14
2019-02-17T13:56:10.437Z,21.54
2019-02-17T13:58:39.023Z,22.14
2019-02-17T14:01:07.601Z,22.04
2019-02-17T14:03:36.161Z,22.64
2019-02-17T14:06:04.749Z,23.55
2019-02-17T14:08:33.304Z,23.24
2019-02-17T14:11:01.901Z,23.32
2019-02-17T14:13:30.485Z,23.00
2019-02-17T14:15:59.069Z,22.96
2019-02-17T14:18:27.985Z,23.33
2019-02-17T14:20:56.572Z,24.33
2019-02-17T14:23:25.157Z,25.11
2019-02-17T14:25:53.747Z,23.83
2019-02-17T14:28:22.300Z,23.57
2019-02-17T14:30:51.192Z,22.29
2019-02-17T14:33:19.787Z,21.80
2019-02-17T14:35:48.644Z,22.44
2019-02-17T14:38:17.202Z,22.42
2019-02-17T14:40:45.870Z,21.68
2019-02-17T14:43:14.730Z,21.73
2019-02-17T14:45:43.616Z,20.82
2019-02-17T14:48:12.209Z,20.72
2019-02-17T14:50:40.791Z,20.93
2019-02-17T14:53:09.347Z,21.27
2019-02-17T14:55:38.080Z,21.15
2019-02-17T14:58:06.646Z,20.89
2019-02-17T15:00:35.545Z,20.97
2019-02-17T15:03:05.143Z,20.54
2019-02-17T15:05:34.527Z,20.08
2019-02-17T15:08:03.755Z,19.83
2019-02-17T15:10:33.399Z,20.35
2019-02-17T15:13:03.030Z,19.73
2019-02-17T15:15:32.452Z,19.84
2019-02-17T15:18:01.752Z,19.19
2019-02-17T15:20:30.686Z,19.02
2019-02-17T15:22:59.660Z,18.40
2019-02-17T15:25:29.010Z,18.62
2019-02-17T15:27:58.719Z,18.51
2019-02-17T15:30:28.354Z,18.46
2019-02-17T15:33:03.935Z,19.02
2019-02-17T15:35:29.005Z,19.11
2019-02-17T15:37:57.994Z,19.17
2019-02-17T15:40:27.614Z,18.65
2019-02-17T15:42:56.873Z,18.46
2019-02-17T15:45:25.503Z,17.88
2019-02-17T15:47:55.104Z,17.28
2019-02-17T15:50:24.802Z,16.69
2019-02-17T15:52:54.398Z,16.27
2019-02-17T15:55:25.609Z,15.97
2019-02-17T15:57:54.604Z,15.46
2019-02-17T16:00:23.871Z,14.54
2019-02-17T16:02:53.537Z,13.57
2019-02-17T16:05:23.307Z,12.24
2019-02-17T16:07:52.962Z,11.35
2019-02-17T16:10:22.674Z,10.67
2019-02-17T16:12:52.005Z,10.17
2019-02-17T16:15:21.731Z,9.63
2019-02-17T16:17:51.088Z,9.25
2019-02-17T16:20:20.819Z,9.11
2019-02-17T16:22:49.783Z,8.94
2019-02-17T16:25:19.093Z,8.78
2019-02-17T16:27:48.841Z,8.61
2019-02-17T16:30:18.522Z,8.37
2019-02-17T16:32:48.226Z,8.13
2019-02-17T16:35:17.985Z,8.02
2019-02-17T16:37:47.653Z,7.92
2019-02-17T16:40:17.375Z,7.86
2019-02-17T16:42:47.115Z,7.75
2019-02-17T16:45:16.792Z,7.55
2019-02-17T16:47:46.888Z,7.35
2019-02-17T16:50:18.172Z,7.24
2019-02-17T16:52:46.735Z,7.25
2019-02-17T16:55:15.301Z,7.15
2019-02-17T16:57:44.749Z,6.96
2019-02-17T17:00:18.746Z,6.87
2019-02-17T17:02:48.495Z,6.87
2019-02-17T17:05:17.857Z,6.90
2019-02-17T17:07:47.271Z,6.63
2019-02-17T17:10:16.998Z,6.67
2019-02-17T17:12:46.821Z,6.55
2019-02-17T17:15:16.594Z,6.32
2019-02-17T17:17:46.306Z,6.11
2019-02-17T17:20:16.086Z,5.90
2019-02-17T17:22:45.731Z,5.84
2019-02-17T17:25:15.437Z,5.73
2019-02-17T17:27:44.701Z,5.69
2019-02-17T17:30:14.565Z,5.70
2019-02-17T17:32:44.262Z,5.63
2019-02-17T17:35:14.026Z,5.57
2019-02-17T17:37:43.686Z,5.56
2019-02-17T17:40:13.415Z,5.35
2019-02-17T17:42:42.457Z,5.55
2019-02-17T17:45:13.225Z,5.65
2019-02-17T17:47:42.248Z,5.54
2019-02-17T17:50:13.098Z,5.36
2019-02-17T17:52:42.768Z,5.16
2019-02-17T17:55:12.440Z,5.04
2019-02-17T17:57:42.033Z,4.87
2019-02-17T18:00:13.738Z,4.85
2019-02-17T18:02:43.358Z,4.85
2019-02-17T18:05:13.108Z,5.21
2019-02-17T18:07:43.244Z,5.42
2019-02-17T18:10:14.156Z,5.29
2019-02-17T18:12:43.709Z,5.07
2019-02-17T18:15:13.488Z,5.26
2019-02-17T18:17:53.456Z,5.30
2019-02-17T18:20:14.958Z,5.29
2019-02-17T18:22:44.686Z,5.35
2019-02-17T18:25:14.033Z,5.45
2019-02-17T18:27:43.746Z,5.56
2019-02-17T18:30:16.376Z,5.58
2019-02-17T18:32:45.740Z,5.86
2019-02-17T18:35:19.786Z,5.57
2019-02-17T18:37:46.519Z,5.51
2019-02-17T18:40:16.117Z,5.38
2019-02-17T18:42:45.852Z,5.25
2019-02-17T18:45:15.132Z,5.62
2019-02-17T18:47:43.677Z,5.46
2019-02-17T18:50:12.926Z,5.26
2019-02-17T18:52:41.478Z,5.30
2019-02-17T18:55:11.815Z,5.50
2019-02-17T18:57:49.636Z,5.70
2019-02-17T19:00:13.235Z,5.68
2019-02-17T19:02:41.864Z,5.69
2019-02-17T19:05:11.143Z,5.88
2019-02-17T19:07:39.730Z,5.73
2019-02-17T19:10:09.883Z,5.73
2019-02-17T19:12:38.457Z,5.53
2019-02-17T19:15:08.117Z,5.35
2019-02-17T19:17:36.679Z,5.69
2019-02-17T19:20:06.378Z,6.40
2019-02-17T19:22:34.957Z,6.33
2019-02-17T19:25:03.577Z,6.27
2019-02-17T19:27:32.151Z,5.70
2019-02-17T19:30:00.741Z,5.88
2019-02-17T19:32:29.297Z,6.26
2019-02-17T19:34:57.846Z,5.93
2019-02-17T19:37:26.433Z,6.01
2019-02-17T19:39:54.990Z,5.92
2019-02-17T19:42:23.551Z,5.78
2019-02-17T19:44:52.146Z,5.64
2019-02-17T19:47:20.697Z,5.52
2019-02-17T19:49:49.264Z,5.55
2019-02-17T19:52:17.848Z,5.53
2019-02-17T19:54:46.400Z,5.22
2019-02-17T19:57:14.982Z,5.03
2019-02-17T19:59:43.574Z,4.72
2019-02-17T20:02:12.258Z,4.71
2019-02-17T20:04:59.829Z,4.63
2019-02-17T20:07:28.410Z,4.71
2019-02-17T20:09:56.964Z,4.58
2019-02-17T20:12:25.564Z,4.46
2019-02-17T20:14:54.414Z,4.17
2019-02-17T20:17:23.034Z,3.91
2019-02-17T20:19:51.620Z,3.76
2019-02-17T20:22:20.253Z,3.74
2019-02-17T20:24:48.826Z,3.77
2019-02-17T20:27:17.429Z,3.67
2019-02-17T20:29:45.990Z,3.55
2019-02-17T20:32:14.550Z,3.46
2019-02-17T20:34:43.149Z,3.32
2019-02-17T20:37:11.703Z,3.21
2019-02-17T20:39:41.337Z,3.10
2019-02-17T20:42:10.029Z,2.99
2019-02-17T20:44:38.874Z,3.29
2019-02-17T20:47:07.434Z,3.32
2019-02-17T20:49:36.414Z,3.39
2019-02-17T20:52:05.762Z,3.09
2019-02-17T20:54:35.303Z,2.82
2019-02-17T20:57:05.284Z,2.65
2019-02-17T20:59:34.364Z,2.55
2019-02-17T21:02:04.026Z,2.64
2019-02-17T21:04:33.734Z,2.72
2019-02-17T21:07:03.477Z,2.66
2019-02-17T21:09:33.281Z,2.68
2019-02-17T21:12:02.667Z,2.55
2019-02-17T21:14:32.461Z,2.43
2019-02-17T21:17:01.901Z,2.46
2019-02-17T21:19:31.489Z,2.43
2019-02-17T21:22:00.847Z,2.26
2019-02-17T21:24:30.510Z,2.14
2019-02-17T21:27:00.137Z,2.25
2019-02-17T21:29:29.518Z,2.39
2019-02-17T21:31:58.806Z,2.35
2019-02-17T21:34:28.074Z,2.44
2019-02-17T21:36:57.648Z,2.31
2019-02-17T21:39:27.051Z,2.11
2019-02-17T21:41:57.441Z,2.00
2019-02-17T21:44:27.209Z,2.21
2019-02-17T21:46:56.564Z,2.27
2019-02-17T21:49:25.779Z,2.35
2019-02-17T21:51:55.207Z,2.14
2019-02-17T21:54:24.570Z,2.07
2019-02-17T21:56:53.835Z,2.00
2019-02-17T21:59:22.824Z,2.12
2019-02-17T22:01:51.800Z,2.14
2019-02-17T22:04:20.421Z,2.14
2019-02-17T22:06:49.788Z,2.21
2019-02-17T22:09:18.780Z,2.09
2019-02-17T22:11:48.177Z,2.32
2019-02-17T22:14:17.858Z,2.36
2019-02-17T22:16:47.761Z,2.52
2019-02-17T22:19:17.214Z,2.23
2019-02-17T22:21:47.079Z,2.06
2019-02-17T22:24:16.817Z,2.04
2019-02-17T22:26:46.097Z,2.21
2019-02-17T22:29:15.818Z,2.29
2019-02-17T22:31:45.529Z,2.10
2019-02-17T22:34:15.282Z,1.98
2019-02-17T22:36:44.948Z,1.81
2019-02-17T22:39:14.392Z,1.70
2019-02-17T22:41:43.760Z,1.88
2019-02-17T22:44:13.365Z,2.31
2019-02-17T22:46:43.101Z,2.23
2019-02-17T22:49:12.825Z,2.11
2019-02-17T22:51:42.333Z,2.17
2019-02-17T22:54:11.857Z,2.22
2019-02-17T22:56:41.536Z,2.37
2019-02-17T22:59:11.161Z,2.60
2019-02-17T23:01:41.011Z,2.50
2019-02-17T23:04:10.571Z,2.38
2019-02-17T23:06:40.199Z,2.27
2019-02-17T23:09:09.865Z,2.01
2019-02-17T23:11:39.469Z,1.98
2019-02-17T23:14:08.922Z,2.12
2019-02-17T23:16:38.137Z,2.22
2019-02-17T23:19:07.782Z,1.91
2019-02-17T23:21:37.455Z,1.84
2019-02-17T23:24:07.101Z,1.94
2019-02-17T23:26:36.815Z,2.12
2019-02-17T23:29:06.564Z,2.38
2019-02-17T23:31:36.145Z,2.66
2019-02-17T23:34:06.028Z,2.64
2019-02-17T23:36:35.373Z,2.29
2019-02-17T23:39:05.837Z,1.94
2019-02-17T23:41:34.802Z,1.87
2019-02-17T23:44:04.582Z,1.92
2019-02-17T23:46:33.925Z,2.10
2019-02-17T23:49:03.227Z,2.17
2019-02-17T23:51:33.088Z,2.08
2019-02-17T23:54:02.738Z,2.11
2019-02-17T23:56:32.965Z,2.04
2019-02-17T23:59:02.549Z,1.87
